createdAt,value
2023-04-23T00:00:00.418Z,99319.31
2023-04-23T00:01:35.611Z,99321.00
2023-04-23T00:03:10.335Z,99323.00
2023-04-23T00:04:51.690Z,99317.94
2023-04-23T00:06:26.927Z,99328.09
2023-04-23T00:08:00.857Z,99327.28
2023-04-23T00:09:33.408Z,99315.56
2023-04-23T00:11:05.513Z,99320.31
2023-04-23T00:12:37.621Z,99319.16
2023-04-23T00:14:09.710Z,99311.47
2023-04-23T00:15:41.912Z,99312.31
2023-04-23T00:17:13.799Z,99315.22
2023-04-23T00:18:45.672Z,99313.50
2023-04-23T00:20:17.894Z,99309.94
2023-04-23T00:21:49.742Z,99309.09
2023-04-23T00:23:21.627Z,99309.28
2023-04-23T00:24:53.813Z,99313.88
2023-04-23T00:26:26.027Z,99309.44
2023-04-23T00:27:57.843Z,99310.47
2023-04-23T00:29:29.886Z,99310.47
2023-04-23T00:31:01.814Z,99306.22
2023-04-23T00:32:34.039Z,99308.78
2023-04-23T00:34:06.046Z,99307.06
2023-04-23T00:35:37.879Z,99310.97
2023-04-23T00:37:09.793Z,99313.84
2023-04-23T00:38:41.761Z,99306.91
2023-04-23T00:40:15.615Z,99312.50
2023-04-23T00:41:48.488Z,99308.44
2023-04-23T00:43:20.891Z,99308.78
2023-04-23T00:44:52.809Z,99310.81
2023-04-23T00:46:26.647Z,99312.16
2023-04-23T00:47:59.068Z,99322.31
2023-04-23T00:49:31.733Z,99320.09
2023-04-23T00:51:05.201Z,99325.84
2023-04-23T00:52:39.237Z,99310.09
2023-04-23T00:54:11.429Z,99322.28
2023-04-23T00:55:43.626Z,99314.50
2023-04-23T00:57:15.738Z,99309.59
2023-04-23T00:58:47.746Z,99310.75
2023-04-23T01:00:20.567Z,99317.69
2023-04-23T01:01:54.140Z,99313.75
2023-04-23T01:03:27.212Z,99305.13
2023-04-23T01:05:01.808Z,99314.28
2023-04-23T01:06:33.808Z,99305.66
2023-04-23T01:08:06.520Z,99305.78
2023-04-23T01:09:39.065Z,99307.66
2023-04-23T01:11:14.920Z,99299.88
2023-04-23T01:12:48.052Z,99301.59
2023-04-23T01:14:19.891Z,99307.13
2023-04-23T01:15:51.765Z,99300.06
2023-04-23T01:17:23.671Z,99306.63
2023-04-23T01:18:56.967Z,99306.63
2023-04-23T01:20:28.830Z,99305.78
2023-04-23T01:22:02.566Z,99302.25
2023-04-23T01:23:34.538Z,99297.81
2023-04-23T01:25:08.338Z,99298.69
2023-04-23T01:26:40.921Z,99311.19
2023-04-23T01:28:13.577Z,99304.25
2023-04-23T01:29:47.360Z,99302.38
2023-04-23T01:31:19.329Z,99308.81
2023-04-23T01:32:51.855Z,99303.22
2023-04-23T01:34:24.289Z,99308.63
2023-04-23T01:35:57.885Z,99300.69
2023-04-23T01:37:30.685Z,99296.97
2023-04-23T01:39:02.534Z,99307.97
2023-04-23T01:40:34.546Z,99300.16
2023-04-23T01:42:07.464Z,99306.59
2023-04-23T01:43:41.962Z,99304.03
2023-04-23T01:45:14.097Z,99303.34
2023-04-23T01:46:46.090Z,99302.81
2023-04-23T01:48:19.667Z,99305.00
2023-04-23T01:49:51.580Z,99305.19
2023-04-23T01:51:25.448Z,99301.25
2023-04-23T01:52:57.351Z,99307.84
2023-04-23T01:54:29.286Z,99302.94
2023-04-23T01:56:02.515Z,99305.25
2023-04-23T01:57:34.883Z,99300.34
2023-04-23T01:59:07.544Z,99310.78
2023-04-23T02:00:39.366Z,99302.84
2023-04-23T02:02:14.061Z,99305.03
2023-04-23T02:03:46.843Z,99304.66
2023-04-23T02:05:19.872Z,99303.13
2023-04-23T02:06:51.975Z,99306.31
2023-04-23T02:08:24.136Z,99301.22
2023-04-23T02:09:56.738Z,99303.56
2023-04-23T02:11:28.622Z,99291.56
2023-04-23T02:13:01.804Z,99294.56
2023-04-23T02:14:33.721Z,99284.41
2023-04-23T02:16:06.025Z,99289.28
2023-04-23T02:17:40.174Z,99284.50
2023-04-23T02:19:14.082Z,99291.38
2023-04-23T02:20:47.719Z,99290.13
2023-04-23T02:22:19.617Z,99290.44
2023-04-23T02:23:51.669Z,99288.06
2023-04-23T02:25:23.750Z,99293.78
2023-04-23T02:26:55.788Z,99292.38
2023-04-23T02:28:27.606Z,99286.44
2023-04-23T02:29:59.599Z,99287.28
2023-04-23T02:31:31.590Z,99283.31
2023-04-23T02:33:04.119Z,99289.06
2023-04-23T02:34:35.957Z,99287.59
2023-04-23T02:36:08.561Z,99288.84
2023-04-23T02:37:40.636Z,99292.44
2023-04-23T02:39:12.495Z,99288.13
2023-04-23T02:40:44.376Z,99291.69
2023-04-23T02:42:16.281Z,99293.63
2023-04-23T02:43:48.069Z,99296.53
2023-04-23T02:45:19.959Z,99294.03
2023-04-23T02:46:52.939Z,99297.91
2023-04-23T02:48:26.309Z,99297.59
2023-04-23T02:49:58.436Z,99301.53
2023-04-23T02:51:31.349Z,99302.88
2023-04-23T02:53:03.356Z,99294.31
2023-04-23T02:54:37.278Z,99300.22
2023-04-23T02:56:09.549Z,99298.03
2023-04-23T02:57:41.460Z,99290.44
2023-04-23T02:59:13.452Z,99289.59
2023-04-23T03:00:45.453Z,99282.84
2023-04-23T03:02:17.392Z,99289.63
2023-04-23T03:03:49.563Z,99277.66
2023-04-23T03:05:21.767Z,99280.84
2023-04-23T03:06:53.650Z,99282.25
2023-04-23T03:08:25.648Z,99289.03
2023-04-23T03:09:57.601Z,99284.31
2023-04-23T03:11:29.877Z,99286.69
2023-04-23T03:13:02.215Z,99280.94
2023-04-23T03:14:34.261Z,99274.34
2023-04-23T03:16:06.719Z,99278.94
2023-04-23T03:17:39.197Z,99283.31
2023-04-23T03:19:11.805Z,99278.09
2023-04-23T03:20:44.639Z,99280.59
2023-04-23T03:22:16.509Z,99273.53
2023-04-23T03:23:48.342Z,99276.22
2023-04-23T03:25:22.606Z,99268.09
2023-04-23T03:26:54.461Z,99273.53
2023-04-23T03:28:26.630Z,99267.25
2023-04-23T03:29:58.441Z,99257.66
2023-04-23T03:31:30.430Z,99259.34
2023-04-23T03:33:03.089Z,99263.06
2023-04-23T03:34:35.106Z,99262.19
2023-04-23T03:36:07.418Z,99267.59
2023-04-23T03:37:39.247Z,99260.19
2023-04-23T03:39:11.465Z,99252.91
2023-04-23T03:40:55.464Z,99255.47
2023-04-23T03:42:27.338Z,99260.88
2023-04-23T03:43:59.584Z,99245.47
2023-04-23T03:45:45.815Z,99232.63
2023-04-23T03:47:17.694Z,99231.28
2023-04-23T03:48:49.960Z,99222.34
2023-04-23T03:50:29.811Z,99214.88
2023-04-23T03:52:14.023Z,99217.44
2023-04-23T03:53:46.758Z,99215.72
2023-04-23T03:55:37.205Z,99224.84
2023-04-23T03:57:09.726Z,99222.34
2023-04-23T03:58:47.606Z,99236.69
2023-04-23T04:00:19.479Z,99251.91
2023-04-23T04:01:51.472Z,99264.59
2023-04-23T04:03:23.776Z,99274.38
2023-04-23T04:04:56.739Z,99279.13
2023-04-23T04:06:29.605Z,99263.75
2023-04-23T04:08:02.016Z,99271.16
2023-04-23T04:09:35.175Z,99265.94
2023-04-23T04:11:07.055Z,99268.66
2023-04-23T04:12:40.018Z,99267.97
2023-04-23T04:14:14.538Z,99260.88
2023-04-23T04:15:46.447Z,99267.44
2023-04-23T04:17:18.397Z,99268.63
2023-04-23T04:18:50.211Z,99269.78
2023-04-23T04:20:24.322Z,99277.25
2023-04-23T04:21:56.362Z,99278.41
2023-04-23T04:23:28.870Z,99274.88
2023-04-23T04:25:00.745Z,99273.16
2023-04-23T04:26:34.559Z,99271.47
2023-04-23T04:28:08.456Z,99273.66
2023-04-23T04:29:41.099Z,99272.13
2023-04-23T04:31:14.660Z,99275.97
2023-04-23T04:32:47.489Z,99274.28
2023-04-23T04:34:19.340Z,99271.06
2023-04-23T04:35:51.240Z,99278.16
2023-04-23T04:37:23.421Z,99276.66
2023-04-23T04:38:58.417Z,99273.06
2023-04-23T04:40:30.636Z,99274.28
2023-04-23T04:42:05.121Z,99279.50
2023-04-23T04:43:37.934Z,99274.09
2023-04-23T04:45:10.719Z,99282.06
2023-04-23T04:46:43.202Z,99272.09
2023-04-23T04:48:15.053Z,99270.22
2023-04-23T04:49:47.016Z,99269.38
2023-04-23T04:51:18.821Z,99275.44
2023-04-23T04:52:50.685Z,99273.97
2023-04-23T04:54:22.482Z,99279.38
2023-04-23T04:55:54.332Z,99273.47
2023-04-23T04:57:26.143Z,99273.16
2023-04-23T04:58:57.998Z,99278.09
2023-04-23T05:00:30.329Z,99270.31
2023-04-23T05:02:02.211Z,99279.63
2023-04-23T05:03:34.236Z,99277.28
2023-04-23T05:05:06.847Z,99272.19
2023-04-23T05:06:38.648Z,99270.84
2023-04-23T05:08:10.641Z,99275.59
2023-04-23T05:09:44.899Z,99279.34
2023-04-23T05:11:19.113Z,99266.81
2023-04-23T05:12:52.105Z,99271.56
2023-04-23T05:14:26.200Z,99279.66
2023-04-23T05:15:58.051Z,99277.97
2023-04-23T05:17:29.882Z,99283.41
2023-04-23T05:19:01.704Z,99272.88
2023-04-23T05:20:33.985Z,99270.91
2023-04-23T05:22:06.114Z,99267.31
2023-04-23T05:23:37.930Z,99278.31
2023-04-23T05:25:12.269Z,99281.66
2023-04-23T05:26:44.111Z,99286.25
2023-04-23T05:28:16.158Z,99283.69
2023-04-23T05:29:48.007Z,99288.03
2023-04-23T05:31:20.279Z,99282.94
2023-04-23T05:32:52.234Z,99285.81
2023-04-23T05:34:24.378Z,99284.25
2023-04-23T05:35:57.479Z,99286.28
2023-04-23T05:37:29.778Z,99288.28
2023-04-23T05:39:01.578Z,99282.31
2023-04-23T05:40:33.572Z,99285.56
2023-04-23T05:42:06.026Z,99284.38
2023-04-23T05:43:37.833Z,99286.03
2023-04-23T05:45:10.212Z,99279.59
2023-04-23T05:46:42.099Z,99283.19
2023-04-23T05:48:14.059Z,99282.81
2023-04-23T05:49:45.877Z,99286.03
2023-04-23T05:51:18.009Z,99286.50
2023-04-23T05:52:49.802Z,99287.84
2023-04-23T05:54:21.851Z,99287.13
2023-04-23T05:55:53.692Z,99290.66
2023-04-23T05:57:25.630Z,99287.69
2023-04-23T05:58:57.426Z,99295.41
2023-04-23T06:00:29.348Z,99297.53
2023-04-23T06:02:01.326Z,99290.94
2023-04-23T06:03:33.400Z,99291.50
2023-04-23T06:05:06.450Z,99290.16
2023-04-23T06:06:38.376Z,99283.97
2023-04-23T06:08:10.239Z,99286.53
2023-04-23T06:09:42.209Z,99295.19
2023-04-23T06:11:14.046Z,99287.88
2023-04-23T06:12:45.855Z,99305.38
2023-04-23T06:14:17.669Z,99299.25
2023-04-23T06:15:49.540Z,99303.38
2023-04-23T06:17:21.389Z,99303.09
2023-04-23T06:18:54.292Z,99293.72
2023-04-23T06:20:26.349Z,99297.44
2023-04-23T06:21:58.179Z,99305.47
2023-04-23T06:23:34.391Z,99300.06
2023-04-23T06:25:06.631Z,99303.91
2023-04-23T06:26:38.731Z,99311.31
2023-04-23T06:28:17.356Z,99299.81
2023-04-23T06:30:08.654Z,99301.97
2023-04-23T06:31:42.109Z,99313.50
2023-04-23T06:33:14.455Z,99309.09
2023-04-23T06:34:57.512Z,99296.31
2023-04-23T06:36:32.628Z,99300.53
2023-04-23T06:38:04.448Z,99304.75
2023-04-23T06:39:36.270Z,99305.38
2023-04-23T06:41:08.134Z,99299.38
2023-04-23T06:42:39.989Z,99308.84
2023-04-23T06:44:34.947Z,99306.38
2023-04-23T06:46:08.160Z,99302.00
2023-04-23T06:47:39.998Z,99310.63
2023-04-23T06:49:12.434Z,99309.19
2023-04-23T06:50:45.026Z,99309.47
2023-04-23T06:52:16.876Z,99305.28
2023-04-23T06:53:48.673Z,99313.94
2023-04-23T06:55:22.237Z,99316.06
2023-04-23T06:56:54.169Z,99315.47
2023-04-23T06:58:31.378Z,99313.84
2023-04-23T07:00:03.611Z,99316.38
2023-04-23T07:01:41.217Z,99325.84
2023-04-23T07:03:13.239Z,99313.69
2023-04-23T07:04:46.041Z,99317.44
2023-04-23T07:06:18.348Z,99313.69
2023-04-23T07:07:50.250Z,99318.31
2023-04-23T07:09:23.340Z,99323.09
2023-04-23T07:10:55.180Z,99324.16
2023-04-23T07:12:27.002Z,99322.28
2023-04-23T07:13:58.888Z,99326.88
2023-04-23T07:15:31.051Z,99316.81
2023-04-23T07:17:03.197Z,99324.78
2023-04-23T07:18:35.022Z,99318.09
2023-04-23T07:20:08.844Z,99326.28
2023-04-23T07:21:40.706Z,99325.22
2023-04-23T07:23:12.523Z,99325.22
2023-04-23T07:24:44.450Z,99321.47
2023-04-23T07:26:16.465Z,99330.91
2023-04-23T07:27:48.298Z,99330.06
2023-04-23T07:29:20.696Z,99325.44
2023-04-23T07:30:52.477Z,99342.00
2023-04-23T07:32:28.183Z,99334.19
2023-04-23T07:34:00.201Z,99340.91
2023-04-23T07:35:31.982Z,99337.31
2023-04-23T07:37:04.514Z,99335.88
2023-04-23T07:38:36.312Z,99336.25
2023-04-23T07:40:09.343Z,99340.22
2023-04-23T07:41:41.236Z,99339.38
2023-04-23T07:43:14.250Z,99357.81
2023-04-23T07:44:46.071Z,99344.41
2023-04-23T07:46:17.970Z,99352.75
2023-04-23T07:47:50.433Z,99352.56
2023-04-23T07:49:22.336Z,99357.38
2023-04-23T07:50:54.384Z,99345.63
2023-04-23T07:52:26.172Z,99344.41
2023-04-23T07:53:58.590Z,99342.69
2023-04-23T07:55:30.397Z,99342.50
2023-04-23T07:57:03.194Z,99337.03
2023-04-23T07:58:35.675Z,99342.16
2023-04-23T08:00:11.570Z,99338.25
2023-04-23T08:01:46.488Z,99331.38
2023-04-23T08:03:18.496Z,99338.38
2023-04-23T08:04:50.489Z,99338.84
2023-04-23T08:06:23.694Z,99345.66
2023-04-23T08:07:55.494Z,99345.09
2023-04-23T08:09:27.340Z,99336.53
2023-04-23T08:10:59.288Z,99343.28
2023-04-23T08:12:31.366Z,99334.72
2023-04-23T08:14:03.188Z,99339.56
2023-04-23T08:15:35.202Z,99342.56
2023-04-23T08:17:06.989Z,99342.19
2023-04-23T08:18:39.054Z,99340.53
2023-04-23T08:20:11.718Z,99342.22
2023-04-23T08:21:43.586Z,99340.16
2023-04-23T08:23:15.374Z,99340.16
2023-04-23T08:24:47.242Z,99336.38
2023-04-23T08:26:19.245Z,99334.88
2023-04-23T08:27:51.242Z,99341.09
2023-04-23T08:29:23.075Z,99340.00
2023-04-23T08:30:55.006Z,99337.09
2023-04-23T08:32:26.902Z,99343.72
2023-04-23T08:33:59.496Z,99339.56
2023-04-23T08:35:31.327Z,99344.06
2023-04-23T08:37:03.305Z,99346.25
2023-04-23T08:38:35.473Z,99353.78
2023-04-23T08:40:07.994Z,99347.41
2023-04-23T08:41:43.117Z,99353.50
2023-04-23T08:43:21.089Z,99355.19
2023-04-23T08:44:54.298Z,99354.78
2023-04-23T08:46:31.387Z,99355.91
2023-04-23T08:48:04.997Z,99360.84
2023-04-23T08:49:41.868Z,99355.00
2023-04-23T08:51:18.594Z,99358.06
2023-04-23T08:52:53.636Z,99363.03
2023-04-23T08:54:29.165Z,99366.31
2023-04-23T08:56:01.225Z,99364.88
2023-04-23T08:57:33.409Z,99358.00
2023-04-23T08:59:06.859Z,99367.78
2023-04-23T09:00:38.878Z,99367.88
2023-04-23T09:02:11.165Z,99372.31
2023-04-23T09:03:43.198Z,99371.28
2023-04-23T09:05:15.741Z,99371.09
2023-04-23T09:06:47.564Z,99371.75
2023-04-23T09:08:21.476Z,99382.22
2023-04-23T09:09:53.420Z,99374.22
2023-04-23T09:11:28.484Z,99379.25
2023-04-23T09:13:00.828Z,99377.34
2023-04-23T09:14:33.132Z,99380.06
2023-04-23T09:16:05.859Z,99374.19
2023-04-23T09:17:43.360Z,99378.84
2023-04-23T09:19:15.291Z,99371.47
2023-04-23T09:20:47.637Z,99376.94
2023-04-23T09:22:58.301Z,99385.56
2023-04-23T09:24:31.054Z,99378.84
2023-04-23T09:26:06.754Z,99394.44
2023-04-23T09:27:39.475Z,99387.91
2023-04-23T09:29:17.732Z,99392.53
2023-04-23T09:30:49.582Z,99386.22
2023-04-23T09:32:32.485Z,99387.47
2023-04-23T09:34:04.317Z,99390.03
2023-04-23T09:35:40.224Z,99385.59
2023-04-23T09:37:14.949Z,99386.88
2023-04-23T09:38:46.843Z,99384.31
2023-04-23T09:40:25.031Z,99382.66
2023-04-23T09:42:04.688Z,99393.16
2023-04-23T09:43:36.480Z,99386.41
2023-04-23T09:45:11.936Z,99379.69
2023-04-23T09:46:44.757Z,99392.28
2023-04-23T09:48:16.624Z,99392.28
2023-04-23T09:49:49.439Z,99393.09
2023-04-23T09:51:21.371Z,99383.44
2023-04-23T09:52:56.802Z,99391.81
2023-04-23T09:54:28.622Z,99381.22
2023-04-23T09:56:00.524Z,99384.16
2023-04-23T09:57:37.549Z,99386.22
2023-04-23T09:59:36.123Z,99385.34
2023-04-23T10:01:18.742Z,99387.03
2023-04-23T10:02:52.319Z,99387.03
2023-04-23T10:04:27.366Z,99381.16
2023-04-23T10:06:01.945Z,99377.19
2023-04-23T10:07:35.200Z,99379.09
2023-04-23T10:09:07.075Z,99374.06
2023-04-23T10:10:54.512Z,99376.16
2023-04-23T10:12:46.496Z,99385.63
2023-04-23T10:14:25.289Z,99382.34
2023-04-23T10:16:04.693Z,99386.34
2023-04-23T10:17:42.431Z,99384.69
2023-04-23T10:19:15.367Z,99381.31
2023-04-23T10:20:48.736Z,99381.56
2023-04-23T10:22:22.021Z,99376.28
2023-04-23T10:23:55.104Z,99376.50
2023-04-23T10:25:28.330Z,99381.81
2023-04-23T10:27:02.922Z,99384.72
2023-04-23T10:28:36.329Z,99385.81
2023-04-23T10:30:11.170Z,99382.66
2023-04-23T10:31:43.372Z,99387.06
2023-04-23T10:33:28.967Z,99375.94
2023-04-23T10:35:02.678Z,99386.00
2023-04-23T10:36:34.613Z,99384.13
2023-04-23T10:38:06.978Z,99383.69
2023-04-23T10:39:39.150Z,99381.16
2023-04-23T10:41:11.921Z,99390.41
2023-04-23T10:42:45.241Z,99378.81
2023-04-23T10:44:17.632Z,99383.84
2023-04-23T10:45:56.065Z,99397.69
2023-04-23T10:47:27.945Z,99397.19
2023-04-23T10:49:14.918Z,99392.75
2023-04-23T10:51:05.770Z,99395.22
2023-04-23T10:52:39.605Z,99397.94
2023-04-23T10:54:14.835Z,99393.09
2023-04-23T10:55:47.382Z,99400.63
2023-04-23T10:57:19.441Z,99393.69
2023-04-23T10:58:52.024Z,99398.13
2023-04-23T11:00:24.152Z,99397.91
2023-04-23T11:01:59.806Z,99397.09
2023-04-23T11:03:33.204Z,99402.38
2023-04-23T11:05:09.881Z,99401.56
2023-04-23T11:06:47.509Z,99400.75
2023-04-23T11:08:20.126Z,99402.25
2023-04-23T11:09:54.072Z,99406.72
2023-04-23T11:11:41.782Z,99411.19
2023-04-23T11:13:27.120Z,99407.22
2023-04-23T11:15:09.720Z,99403.84
2023-04-23T11:16:41.580Z,99402.63
2023-04-23T11:18:13.500Z,99396.94
2023-04-23T11:20:04.334Z,99399.47
2023-04-23T11:21:54.830Z,99402.66
2023-04-23T11:23:33.174Z,99394.03
2023-04-23T11:25:09.396Z,99403.31
2023-04-23T11:26:42.995Z,99394.03
2023-04-23T11:28:15.044Z,99397.63
2023-04-23T11:29:48.035Z,99400.59
2023-04-23T11:31:20.314Z,99405.41
2023-04-23T11:32:54.717Z,99406.66
2023-04-23T11:34:26.771Z,99401.63
2023-04-23T11:35:58.729Z,99393.63
2023-04-23T11:37:30.554Z,99394.22
2023-04-23T11:39:03.310Z,99381.41
2023-04-23T11:40:35.239Z,99381.00
2023-04-23T11:42:11.311Z,99379.94
2023-04-23T11:43:43.655Z,99379.28
2023-04-23T11:45:20.519Z,99378.03
2023-04-23T11:46:52.440Z,99378.41
2023-04-23T11:48:24.257Z,99378.41
2023-04-23T11:49:56.071Z,99375.81
2023-04-23T11:51:28.145Z,99369.84
2023-04-23T11:53:09.582Z,99383.28
2023-04-23T11:54:42.675Z,99376.69
2023-04-23T11:56:17.437Z,99378.75
2023-04-23T11:57:50.982Z,99380.75
2023-04-23T11:59:23.605Z,99381.34
2023-04-23T12:00:59.948Z,99375.41
2023-04-23T12:02:31.869Z,99377.47
2023-04-23T12:04:11.104Z,99379.41
2023-04-23T12:05:45.113Z,99384.44
2023-04-23T12:07:25.831Z,99388.00
2023-04-23T12:08:58.648Z,99386.56
2023-04-23T12:10:30.477Z,99385.31
2023-04-23T12:12:02.747Z,99383.47
2023-04-23T12:13:34.634Z,99378.66
2023-04-23T12:15:07.633Z,99390.25
2023-04-23T12:16:41.530Z,99385.91
2023-04-23T12:18:13.360Z,99382.97
2023-04-23T12:19:45.461Z,99383.63
2023-04-23T12:21:18.974Z,99382.38
2023-04-23T12:22:50.809Z,99382.81
2023-04-23T12:24:24.158Z,99384.91
2023-04-23T12:25:56.276Z,99384.06
2023-04-23T12:27:28.584Z,99382.16
2023-04-23T12:29:00.474Z,99374.19
2023-04-23T12:30:35.630Z,99379.41
2023-04-23T12:32:11.515Z,99379.41
2023-04-23T12:33:44.040Z,99376.47
2023-04-23T12:35:15.911Z,99377.09
2023-04-23T12:36:50.770Z,99371.00
2023-04-23T12:38:27.714Z,99372.22
2023-04-23T12:39:59.832Z,99366.03
2023-04-23T12:41:33.439Z,99377.38
2023-04-23T12:43:05.647Z,99369.69
2023-04-23T12:44:38.809Z,99361.81
2023-04-23T12:46:10.612Z,99362.38
2023-04-23T12:47:42.471Z,99368.44
2023-04-23T12:49:14.304Z,99362.94
2023-04-23T12:50:46.950Z,99364.97
2023-04-23T12:52:18.967Z,99358.22
2023-04-23T12:53:51.437Z,99354.38
2023-04-23T12:55:23.222Z,99342.38
2023-04-23T12:56:55.880Z,99353.34
2023-04-23T12:58:28.178Z,99359.03
2023-04-23T13:00:00.031Z,99354.84
2023-04-23T13:01:33.337Z,99352.78
2023-04-23T13:03:05.288Z,99357.66
2023-04-23T13:04:37.157Z,99354.72
2023-04-23T13:06:08.945Z,99352.41
2023-04-23T13:07:40.937Z,99361.31
2023-04-23T13:09:13.016Z,99357.34
2023-04-23T13:10:45.168Z,99345.34
2023-04-23T13:12:16.992Z,99346.88
2023-04-23T13:13:48.786Z,99337.41
2023-04-23T13:15:20.701Z,99337.84
2023-04-23T13:16:52.926Z,99327.09
2023-04-23T13:18:25.103Z,99327.94
2023-04-23T13:19:57.403Z,99327.72
2023-04-23T13:21:29.209Z,99320.94
2023-04-23T13:23:03.156Z,99328.50
2023-04-23T13:24:35.179Z,99322.56
2023-04-23T13:26:08.507Z,99319.81
2023-04-23T13:27:41.040Z,99317.69
2023-04-23T13:29:12.921Z,99312.22
2023-04-23T13:30:44.726Z,99310.75
2023-04-23T13:32:16.710Z,99306.09
2023-04-23T13:33:48.494Z,99297.66
2023-04-23T13:35:20.309Z,99291.09
2023-04-23T13:36:52.126Z,99282.63
2023-04-23T13:38:24.226Z,99284.47
2023-04-23T13:39:56.171Z,99285.72
2023-04-23T13:41:27.973Z,99286.53
2023-04-23T13:42:59.804Z,99290.66
2023-04-23T13:44:31.927Z,99282.75
2023-04-23T13:46:04.066Z,99283.88
2023-04-23T13:47:35.978Z,99282.28
2023-04-23T13:49:07.893Z,99279.41
2023-04-23T13:50:39.967Z,99279.25
2023-04-23T13:52:11.788Z,99270.84
2023-04-23T13:53:43.615Z,99271.50
2023-04-23T13:55:15.513Z,99274.41
2023-04-23T13:56:47.456Z,99269.38
2023-04-23T13:58:19.444Z,99268.22
2023-04-23T13:59:51.260Z,99264.75
2023-04-23T14:01:23.166Z,99274.25
2023-04-23T14:02:55.544Z,99267.09
2023-04-23T14:04:27.480Z,99266.13
2023-04-23T14:05:59.495Z,99263.97
2023-04-23T14:07:31.342Z,99265.03
2023-04-23T14:09:03.154Z,99264.06
2023-04-23T14:10:35.600Z,99263.97
2023-04-23T14:12:07.450Z,99260.47
2023-04-23T14:13:39.374Z,99257.47
2023-04-23T14:15:11.486Z,99253.63
2023-04-23T14:16:43.292Z,99249.78
2023-04-23T14:18:15.078Z,99244.25
2023-04-23T14:19:47.502Z,99245.69
2023-04-23T14:21:19.747Z,99240.75
2023-04-23T14:23:02.935Z,99247.84
2023-04-23T14:24:39.780Z,99247.38
2023-04-23T14:26:22.644Z,99244.31
2023-04-23T14:27:56.545Z,99249.69
2023-04-23T14:29:50.690Z,99246.88
2023-04-23T14:31:22.548Z,99240.41
2023-04-23T14:32:56.667Z,99240.06
2023-04-23T14:34:28.600Z,99240.16
2023-04-23T14:36:00.424Z,99238.78
2023-04-23T14:37:32.196Z,99229.78
2023-04-23T14:39:05.637Z,99239.81
2023-04-23T14:40:37.450Z,99230.78
2023-04-23T14:42:09.687Z,99231.50
2023-04-23T14:43:41.490Z,99231.31
2023-04-23T14:45:14.336Z,99235.84
2023-04-23T14:46:46.223Z,99230.16
2023-04-23T14:48:18.057Z,99208.88
2023-04-23T14:49:50.996Z,99218.63
2023-04-23T14:51:23.128Z,99214.66
2023-04-23T14:52:55.066Z,99211.28
2023-04-23T14:54:26.902Z,99216.19
2023-04-23T14:55:58.709Z,99212.81
2023-04-23T14:57:31.204Z,99207.34
2023-04-23T14:59:03.905Z,99211.16
2023-04-23T15:00:36.015Z,99208.41
2023-04-23T15:02:08.510Z,99208.78
2023-04-23T15:03:40.814Z,99205.75
2023-04-23T15:05:13.631Z,99203.94
2023-04-23T15:06:45.445Z,99211.38
2023-04-23T15:08:17.253Z,99203.50
2023-04-23T15:09:49.069Z,99205.91
2023-04-23T15:11:20.968Z,99205.06
2023-04-23T15:13:02.268Z,99193.19
2023-04-23T15:14:37.761Z,99197.28
2023-04-23T15:16:25.717Z,99194.91
2023-04-23T15:18:04.328Z,99184.31
2023-04-23T15:19:36.247Z,99186.66
2023-04-23T15:21:08.055Z,99186.63
2023-04-23T15:22:39.887Z,99185.06
2023-04-23T15:24:12.305Z,99180.81
2023-04-23T15:25:44.133Z,99183.63
2023-04-23T15:27:16.043Z,99186.47
2023-04-23T15:28:48.466Z,99181.31
2023-04-23T15:30:21.913Z,99183.28
2023-04-23T15:31:58.484Z,99184.13
2023-04-23T15:33:30.765Z,99175.28
2023-04-23T15:35:02.734Z,99177.47
2023-04-23T15:36:35.885Z,99173.03
2023-04-23T15:38:07.692Z,99173.16
2023-04-23T15:39:39.695Z,99174.13
2023-04-23T15:41:12.690Z,99178.38
2023-04-23T15:42:48.202Z,99174.59
2023-04-23T15:44:20.029Z,99171.38
2023-04-23T15:45:53.901Z,99170.28
2023-04-23T15:47:25.930Z,99171.75
2023-04-23T15:48:57.999Z,99167.34
2023-04-23T15:50:29.848Z,99164.88
2023-04-23T15:52:01.686Z,99164.09
2023-04-23T15:53:33.500Z,99157.44
2023-04-23T15:55:06.420Z,99157.69
2023-04-23T15:56:38.234Z,99149.63
2023-04-23T15:58:10.031Z,99152.38
2023-04-23T15:59:42.150Z,99147.31
2023-04-23T16:01:14.358Z,99140.66
2023-04-23T16:02:46.345Z,99147.75
2023-04-23T16:04:18.449Z,99146.31
2023-04-23T16:05:51.234Z,99143.19
2023-04-23T16:07:23.068Z,99145.59
2023-04-23T16:08:54.868Z,99143.00
2023-04-23T16:10:27.876Z,99150.63
2023-04-23T16:11:59.877Z,99138.81
2023-04-23T16:13:31.725Z,99148.03
2023-04-23T16:15:04.641Z,99143.38
2023-04-23T16:16:38.433Z,99133.19
2023-04-23T16:18:10.357Z,99132.16
2023-04-23T16:19:42.552Z,99128.94
2023-04-23T16:21:14.625Z,99124.44
2023-04-23T16:22:46.527Z,99114.00
2023-04-23T16:24:19.282Z,99122.78
2023-04-23T16:25:51.156Z,99114.06
2023-04-23T16:27:23.648Z,99119.38
2023-04-23T16:29:05.602Z,99120.69
2023-04-23T16:30:43.466Z,99120.91
2023-04-23T16:32:15.399Z,99122.03
2023-04-23T16:33:47.201Z,99115.59
2023-04-23T16:35:19.032Z,99115.19
2023-04-23T16:36:50.832Z,99115.91
2023-04-23T16:38:23.350Z,99110.81
2023-04-23T16:39:55.145Z,99107.84
2023-04-23T16:41:27.494Z,99106.06
2023-04-23T16:42:59.638Z,99108.03
2023-04-23T16:44:31.445Z,99098.81
2023-04-23T16:46:03.373Z,99101.41
2023-04-23T16:47:35.232Z,99103.06
2023-04-23T16:49:07.141Z,99089.16
2023-04-23T16:50:39.164Z,99104.09
2023-04-23T16:52:11.306Z,99104.16
2023-04-23T16:53:43.273Z,99105.38
2023-04-23T16:55:15.291Z,99095.38
2023-04-23T16:56:47.106Z,99101.72
2023-04-23T16:58:19.046Z,99101.97
2023-04-23T16:59:52.625Z,99104.97
2023-04-23T17:01:24.710Z,99091.13
2023-04-23T17:02:56.873Z,99094.13
2023-04-23T17:04:28.898Z,99087.38
2023-04-23T17:06:12.548Z,99092.00
2023-04-23T17:07:44.507Z,99084.66
2023-04-23T17:09:16.784Z,99084.06
2023-04-23T17:10:48.602Z,99083.66
2023-04-23T17:12:20.396Z,99076.72
2023-04-23T17:13:52.294Z,99079.63
2023-04-23T17:15:24.083Z,99086.16
2023-04-23T17:16:56.426Z,99085.31
2023-04-23T17:18:28.618Z,99085.31
2023-04-23T17:20:00.495Z,99080.84
2023-04-23T17:21:32.652Z,99081.06
2023-04-23T17:23:04.478Z,99080.16
2023-04-23T17:24:37.749Z,99075.97
2023-04-23T17:26:10.954Z,99072.59
2023-04-23T17:27:42.816Z,99070.69
2023-04-23T17:29:14.617Z,99073.81
2023-04-23T17:30:50.399Z,99069.78
2023-04-23T17:32:22.611Z,99072.84
2023-04-23T17:33:56.357Z,99070.50
2023-04-23T17:35:28.180Z,99063.53
2023-04-23T17:37:00.008Z,99064.75
2023-04-23T17:38:31.851Z,99066.16
2023-04-23T17:40:07.134Z,99058.34
2023-04-23T17:41:39.123Z,99057.88
2023-04-23T17:43:10.967Z,99060.13
2023-04-23T17:44:43.942Z,99062.28
2023-04-23T17:46:16.366Z,99056.34
2023-04-23T17:47:48.263Z,99055.03
2023-04-23T17:49:20.163Z,99056.22
2023-04-23T17:50:52.048Z,99060.31
2023-04-23T17:52:23.913Z,99056.03
2023-04-23T17:53:55.756Z,99057.41
2023-04-23T17:55:27.910Z,99064.00
2023-04-23T17:56:59.709Z,99060.53
2023-04-23T17:58:31.555Z,99065.28
2023-04-23T18:00:09.842Z,99067.72
2023-04-23T18:01:44.865Z,99072.41
2023-04-23T18:03:18.714Z,99077.97
2023-04-23T18:04:50.702Z,99079.56
2023-04-23T18:06:23.094Z,99070.69
2023-04-23T18:07:55.195Z,99082.97
2023-04-23T18:09:27.206Z,99069.28
2023-04-23T18:11:00.606Z,99074.47
2023-04-23T18:12:32.784Z,99070.81
2023-04-23T18:14:04.651Z,99076.97
2023-04-23T18:15:36.885Z,99071.09